sensor_id;sensor_type;location;lat;lon;timestamp;P1;durP1;ratioP1;P2;durP2;ratioP2
38053;SDS011;23859;50.672;7.164;2023-03-01T00:02:06;35.20;;;15.10;;
38053;SDS011;23859;50.672;7.164;2023-03-01T00:04:32;36.10;;;17.35;;
38053;SDS011;23859;50.672;7.164;2023-03-01T00:07:00;28.27;;;13.90;;
38053;SDS011;23859;50.672;7.164;2023-03-01T00:09:26;22.25;;;11.70;;
38053;SDS011;23859;50.672;7.164;2023-03-01T00:11:52;26.48;;;14.18;;
38053;SDS011;23859;50.672;7.164;2023-03-01T00:14:18;37.10;;;16.13;;
38053;SDS011;23859;50.672;7.164;2023-03-01T00:16:45;31.63;;;16.65;;
38053;SDS011;23859;50.672;7.164;2023-03-01T00:19:15;22.13;;;12.50;;
38053;SDS011;23859;50.672;7.164;2023-03-01T00:21:43;23.45;;;12.00;;
38053;SDS011;23859;50.672;7.164;2023-03-01T00:24:10;24.35;;;13.23;;
38053;SDS011;23859;50.672;7.164;2023-03-01T00:26:36;24.92;;;12.48;;
38053;SDS011;23859;50.672;7.164;2023-03-01T00:29:02;27.33;;;13.38;;
38053;SDS011;23859;50.672;7.164;2023-03-01T00:31:29;19.30;;;10.90;;
38053;SDS011;23859;50.672;7.164;2023-03-01T00:33:58;19.38;;;11.93;;
38053;SDS011;23859;50.672;7.164;2023-03-01T00:36:27;19.65;;;11.23;;
38053;SDS011;23859;50.672;7.164;2023-03-01T00:38:55;20.08;;;10.52;;
38053;SDS011;23859;50.672;7.164;2023-03-01T00:41:22;19.70;;;12.13;;
38053;SDS011;23859;50.672;7.164;2023-03-01T00:43:48;16.70;;;10.55;;
38053;SDS011;23859;50.672;7.164;2023-03-01T00:46:18;19.60;;;12.00;;
38053;SDS011;23859;50.672;7.164;2023-03-01T00:48:47;20.95;;;11.27;;
38053;SDS011;23859;50.672;7.164;2023-03-01T00:51:14;17.63;;;10.07;;
38053;SDS011;23859;50.672;7.164;2023-03-01T00:53:41;20.55;;;11.63;;
38053;SDS011;23859;50.672;7.164;2023-03-01T00:56:08;22.25;;;12.10;;
38053;SDS011;23859;50.672;7.164;2023-03-01T00:58:36;21.42;;;10.80;;
38053;SDS011;23859;50.672;7.164;2023-03-01T01:01:15;17.95;;;11.02;;
38053;SDS011;23859;50.672;7.164;2023-03-01T01:03:51;25.33;;;12.25;;
38053;SDS011;23859;50.672;7.164;2023-03-01T01:06:40;22.05;;;11.27;;
38053;SDS011;23859;50.672;7.164;2023-03-01T01:09:07;23.77;;;11.20;;
38053;SDS011;23859;50.672;7.164;2023-03-01T01:11:42;18.75;;;11.25;;
38053;SDS011;23859;50.672;7.164;2023-03-01T01:14:12;19.88;;;11.32;;
38053;SDS011;23859;50.672;7.164;2023-03-01T01:16:38;19.85;;;11.70;;
38053;SDS011;23859;50.672;7.164;2023-03-01T01:19:05;18.88;;;11.73;;
38053;SDS011;23859;50.672;7.164;2023-03-01T01:21:31;20.13;;;11.57;;
38053;SDS011;23859;50.672;7.164;2023-03-01T01:23:57;19.75;;;11.35;;
38053;SDS011;23859;50.672;7.164;2023-03-01T01:26:25;20.40;;;11.85;;
38053;SDS011;23859;50.672;7.164;2023-03-01T01:28:55;20.08;;;11.70;;
38053;SDS011;23859;50.672;7.164;2023-03-01T01:31:22;20.95;;;12.20;;
38053;SDS011;23859;50.672;7.164;2023-03-01T01:33:49;20.30;;;11.25;;
38053;SDS011;23859;50.672;7.164;2023-03-01T01:36:17;21.05;;;11.35;;
38053;SDS011;23859;50.672;7.164;2023-03-01T01:38:43;19.85;;;11.15;;
38053;SDS011;23859;50.672;7.164;2023-03-01T01:41:10;22.63;;;12.15;;
38053;SDS011;23859;50.672;7.164;2023-03-01T01:43:39;28.20;;;13.20;;
38053;SDS011;23859;50.672;7.164;2023-03-01T01:49:05;27.55;;;14.40;;
38053;SDS011;23859;50.672;7.164;2023-03-01T01:54:44;27.65;;;12.80;;
38053;SDS011;23859;50.672;7.164;2023-03-01T01:57:18;23.50;;;11.70;;
38053;SDS011;23859;50.672;7.164;2023-03-01T01:59:50;25.02;;;12.73;;
38053;SDS011;23859;50.672;7.164;2023-03-01T02:02:20;24.83;;;13.88;;
38053;SDS011;23859;50.672;7.164;2023-03-01T02:04:47;24.83;;;12.95;;
38053;SDS011;23859;50.672;7.164;2023-03-01T02:07:15;24.08;;;13.65;;
38053;SDS011;23859;50.672;7.164;2023-03-01T02:09:45;25.88;;;13.70;;
38053;SDS011;23859;50.672;7.164;2023-03-01T02:12:20;28.23;;;14.07;;
38053;SDS011;23859;50.672;7.164;2023-03-01T02:14:49;24.48;;;13.10;;
38053;SDS011;23859;50.672;7.164;2023-03-01T02:17:15;25.92;;;12.43;;
38053;SDS011;23859;50.672;7.164;2023-03-01T02:22:30;24.00;;;12.57;;
38053;SDS011;23859;50.672;7.164;2023-03-01T02:25:01;21.13;;;12.05;;
38053;SDS011;23859;50.672;7.164;2023-03-01T02:27:40;28.50;;;13.80;;
38053;SDS011;23859;50.672;7.164;2023-03-01T02:30:23;26.85;;;12.68;;
38053;SDS011;23859;50.672;7.164;2023-03-01T02:32:51;25.88;;;13.52;;
38053;SDS011;23859;50.672;7.164;2023-03-01T02:35:19;24.15;;;12.80;;
38053;SDS011;23859;50.672;7.164;2023-03-01T02:37:46;23.17;;;12.75;;
38053;SDS011;23859;50.672;7.164;2023-03-01T02:40:16;26.27;;;12.65;;
38053;SDS011;23859;50.672;7.164;2023-03-01T02:42:48;23.10;;;12.57;;
38053;SDS011;23859;50.672;7.164;2023-03-01T02:45:20;22.60;;;12.05;;
38053;SDS011;23859;50.672;7.164;2023-03-01T02:47:46;23.90;;;13.00;;
38053;SDS011;23859;50.672;7.164;2023-03-01T02:50:21;21.52;;;12.95;;
38053;SDS011;23859;50.672;7.164;2023-03-01T02:53:01;24.70;;;12.93;;
38053;SDS011;23859;50.672;7.164;2023-03-01T02:55:36;25.65;;;13.40;;
38053;SDS011;23859;50.672;7.164;2023-03-01T02:58:03;23.35;;;12.85;;
38053;SDS011;23859;50.672;7.164;2023-03-01T03:00:39;24.73;;;12.38;;
38053;SDS011;23859;50.672;7.164;2023-03-01T03:03:15;22.02;;;12.25;;
38053;SDS011;23859;50.672;7.164;2023-03-01T03:05:44;23.70;;;12.35;;
38053;SDS011;23859;50.672;7.164;2023-03-01T03:08:28;25.63;;;13.40;;
38053;SDS011;23859;50.672;7.164;2023-03-01T03:10:54;22.67;;;11.88;;
38053;SDS011;23859;50.672;7.164;2023-03-01T03:13:21;26.33;;;13.63;;
38053;SDS011;23859;50.672;7.164;2023-03-01T03:15:47;20.98;;;12.70;;
38053;SDS011;23859;50.672;7.164;2023-03-01T03:18:14;26.00;;;13.88;;
38053;SDS011;23859;50.672;7.164;2023-03-01T03:20:42;21.77;;;13.02;;
38053;SDS011;23859;50.672;7.164;2023-03-01T03:23:09;28.88;;;13.30;;
38053;SDS011;23859;50.672;7.164;2023-03-01T03:25:35;25.23;;;13.98;;
38053;SDS011;23859;50.672;7.164;2023-03-01T03:28:02;24.27;;;12.10;;
38053;SDS011;23859;50.672;7.164;2023-03-01T03:30:34;26.83;;;13.00;;
38053;SDS011;23859;50.672;7.164;2023-03-01T03:33:04;19.23;;;11.55;;
38053;SDS011;23859;50.672;7.164;2023-03-01T03:35:31;22.40;;;12.88;;
38053;SDS011;23859;50.672;7.164;2023-03-01T03:38:04;22.60;;;13.35;;
38053;SDS011;23859;50.672;7.164;2023-03-01T03:40:35;25.60;;;13.27;;
38053;SDS011;23859;50.672;7.164;2023-03-01T03:43:08;24.65;;;13.82;;
38053;SDS011;23859;50.672;7.164;2023-03-01T03:45:36;22.02;;;13.15;;
38053;SDS011;23859;50.672;7.164;2023-03-01T03:48:03;24.45;;;12.27;;
38053;SDS011;23859;50.672;7.164;2023-03-01T03:50:31;23.85;;;12.23;;
38053;SDS011;23859;50.672;7.164;2023-03-01T03:53:00;19.73;;;12.25;;
38053;SDS011;23859;50.672;7.164;2023-03-01T03:55:27;28.10;;;13.25;;
38053;SDS011;23859;50.672;7.164;2023-03-01T03:57:56;27.08;;;13.10;;
38053;SDS011;23859;50.672;7.164;2023-03-01T04:00:26;24.52;;;12.38;;
38053;SDS011;23859;50.672;7.164;2023-03-01T04:02:53;23.23;;;12.50;;
38053;SDS011;23859;50.672;7.164;2023-03-01T04:05:22;23.75;;;12.98;;
38053;SDS011;23859;50.672;7.164;2023-03-01T04:07:48;18.63;;;12.27;;
38053;SDS011;23859;50.672;7.164;2023-03-01T04:10:25;19.77;;;12.30;;
38053;SDS011;23859;50.672;7.164;2023-03-01T04:12:52;18.20;;;11.25;;
38053;SDS011;23859;50.672;7.164;2023-03-01T04:15:21;17.50;;;11.30;;
38053;SDS011;23859;50.672;7.164;2023-03-01T04:17:49;21.05;;;12.43;;
38053;SDS011;23859;50.672;7.164;2023-03-01T04:20:19;22.40;;;10.98;;
38053;SDS011;23859;50.672;7.164;2023-03-01T04:22:55;23.23;;;11.37;;
38053;SDS011;23859;50.672;7.164;2023-03-01T04:25:35;23.25;;;12.32;;
38053;SDS011;23859;50.672;7.164;2023-03-01T04:28:10;23.90;;;13.07;;
38053;SDS011;23859;50.672;7.164;2023-03-01T04:30:36;18.27;;;11.13;;
38053;SDS011;23859;50.672;7.164;2023-03-01T04:33:07;21.17;;;10.63;;
38053;SDS011;23859;50.672;7.164;2023-03-01T04:35:35;22.08;;;11.35;;
38053;SDS011;23859;50.672;7.164;2023-03-01T04:38:02;21.23;;;11.63;;
38053;SDS011;23859;50.672;7.164;2023-03-01T04:40:28;22.73;;;11.20;;
38053;SDS011;23859;50.672;7.164;2023-03-01T04:42:54;21.63;;;11.43;;
38053;SDS011;23859;50.672;7.164;2023-03-01T04:45:21;23.27;;;12.95;;
38053;SDS011;23859;50.672;7.164;2023-03-01T04:47:47;28.50;;;12.88;;
38053;SDS011;23859;50.672;7.164;2023-03-01T04:50:14;24.80;;;12.00;;
38053;SDS011;23859;50.672;7.164;2023-03-01T04:52:42;20.95;;;12.55;;
38053;SDS011;23859;50.672;7.164;2023-03-01T04:55:09;23.52;;;11.65;;
38053;SDS011;23859;50.672;7.164;2023-03-01T04:57:36;30.58;;;12.73;;
38053;SDS011;23859;50.672;7.164;2023-03-01T05:00:03;23.90;;;13.02;;
38053;SDS011;23859;50.672;7.164;2023-03-01T05:02:48;27.02;;;12.38;;
38053;SDS011;23859;50.672;7.164;2023-03-01T05:05:18;24.75;;;11.55;;
38053;SDS011;23859;50.672;7.164;2023-03-01T05:07:46;27.25;;;14.23;;
38053;SDS011;23859;50.672;7.164;2023-03-01T05:10:12;18.08;;;12.00;;
38053;SDS011;23859;50.672;7.164;2023-03-01T05:12:38;30.15;;;14.68;;
38053;SDS011;23859;50.672;7.164;2023-03-01T05:15:04;20.10;;;12.40;;
38053;SDS011;23859;50.672;7.164;2023-03-01T05:17:32;21.30;;;12.18;;
38053;SDS011;23859;50.672;7.164;2023-03-01T05:19:59;20.00;;;11.30;;
38053;SDS011;23859;50.672;7.164;2023-03-01T05:22:25;29.25;;;13.85;;
38053;SDS011;23859;50.672;7.164;2023-03-01T05:24:52;25.63;;;13.15;;
38053;SDS011;23859;50.672;7.164;2023-03-01T05:27:19;23.70;;;13.15;;
38053;SDS011;23859;50.672;7.164;2023-03-01T05:29:47;26.67;;;12.95;;
38053;SDS011;23859;50.672;7.164;2023-03-01T05:32:13;26.60;;;13.90;;
38053;SDS011;23859;50.672;7.164;2023-03-01T05:34:40;24.58;;;13.73;;
38053;SDS011;23859;50.672;7.164;2023-03-01T05:37:07;27.00;;;13.43;;
38053;SDS011;23859;50.672;7.164;2023-03-01T05:39:33;25.75;;;14.65;;
38053;SDS011;23859;50.672;7.164;2023-03-01T05:42:00;29.95;;;13.77;;
38053;SDS011;23859;50.672;7.164;2023-03-01T05:44:26;26.88;;;13.25;;
38053;SDS011;23859;50.672;7.164;2023-03-01T05:46:53;30.85;;;14.68;;
38053;SDS011;23859;50.672;7.164;2023-03-01T05:49:20;24.30;;;13.50;;
38053;SDS011;23859;50.672;7.164;2023-03-01T05:51:51;25.27;;;13.90;;
38053;SDS011;23859;50.672;7.164;2023-03-01T05:54:18;25.88;;;14.25;;
38053;SDS011;23859;50.672;7.164;2023-03-01T05:56:45;26.73;;;13.85;;
38053;SDS011;23859;50.672;7.164;2023-03-01T05:59:11;27.25;;;14.77;;
38053;SDS011;23859;50.672;7.164;2023-03-01T06:01:38;26.13;;;14.88;;
38053;SDS011;23859;50.672;7.164;2023-03-01T06:04:04;29.05;;;14.82;;
38053;SDS011;23859;50.672;7.164;2023-03-01T06:06:34;27.25;;;15.00;;
38053;SDS011;23859;50.672;7.164;2023-03-01T06:09:04;31.95;;;15.30;;
38053;SDS011;23859;50.672;7.164;2023-03-01T06:11:33;31.95;;;13.77;;
38053;SDS011;23859;50.672;7.164;2023-03-01T06:14:00;26.27;;;13.68;;
38053;SDS011;23859;50.672;7.164;2023-03-01T06:16:26;26.58;;;13.93;;
38053;SDS011;23859;50.672;7.164;2023-03-01T06:18:52;26.13;;;13.23;;
38053;SDS011;23859;50.672;7.164;2023-03-01T06:21:18;26.00;;;14.05;;
38053;SDS011;23859;50.672;7.164;2023-03-01T06:23:44;30.02;;;15.18;;
38053;SDS011;23859;50.672;7.164;2023-03-01T06:26:10;28.05;;;15.10;;
38053;SDS011;23859;50.672;7.164;2023-03-01T06:28:36;28.60;;;14.90;;
38053;SDS011;23859;50.672;7.164;2023-03-01T06:31:02;26.98;;;14.57;;
38053;SDS011;23859;50.672;7.164;2023-03-01T06:33:29;36.10;;;16.63;;
38053;SDS011;23859;50.672;7.164;2023-03-01T06:35:55;26.27;;;14.63;;
38053;SDS011;23859;50.672;7.164;2023-03-01T06:38:21;29.23;;;14.73;;
38053;SDS011;23859;50.672;7.164;2023-03-01T06:40:52;34.08;;;16.15;;
38053;SDS011;23859;50.672;7.164;2023-03-01T06:43:20;26.20;;;14.73;;
38053;SDS011;23859;50.672;7.164;2023-03-01T06:45:46;27.27;;;14.93;;
38053;SDS011;23859;50.672;7.164;2023-03-01T06:48:12;27.90;;;15.38;;
38053;SDS011;23859;50.672;7.164;2023-03-01T06:50:38;28.25;;;15.23;;
38053;SDS011;23859;50.672;7.164;2023-03-01T06:53:04;35.40;;;16.40;;
38053;SDS011;23859;50.672;7.164;2023-03-01T06:55:31;30.70;;;15.70;;
38053;SDS011;23859;50.672;7.164;2023-03-01T06:57:58;29.65;;;15.52;;
38053;SDS011;23859;50.672;7.164;2023-03-01T07:00:25;38.15;;;16.65;;
38053;SDS011;23859;50.672;7.164;2023-03-01T07:02:52;29.58;;;15.60;;
38053;SDS011;23859;50.672;7.164;2023-03-01T07:05:20;29.23;;;15.50;;
38053;SDS011;23859;50.672;7.164;2023-03-01T07:07:46;27.52;;;15.27;;
38053;SDS011;23859;50.672;7.164;2023-03-01T07:10:12;27.30;;;15.63;;
38053;SDS011;23859;50.672;7.164;2023-03-01T07:12:38;24.73;;;13.77;;
38053;SDS011;23859;50.672;7.164;2023-03-01T07:15:06;28.90;;;15.52;;
38053;SDS011;23859;50.672;7.164;2023-03-01T07:17:34;31.40;;;16.45;;
38053;SDS011;23859;50.672;7.164;2023-03-01T07:20:00;33.28;;;16.52;;
38053;SDS011;23859;50.672;7.164;2023-03-01T07:22:26;31.40;;;14.60;;
38053;SDS011;23859;50.672;7.164;2023-03-01T07:24:52;26.70;;;15.32;;
38053;SDS011;23859;50.672;7.164;2023-03-01T07:27:18;31.58;;;16.48;;
38053;SDS011;23859;50.672;7.164;2023-03-01T07:29:44;29.35;;;15.13;;
38053;SDS011;23859;50.672;7.164;2023-03-01T07:32:10;29.60;;;15.45;;
38053;SDS011;23859;50.672;7.164;2023-03-01T07:34:36;36.05;;;16.67;;
38053;SDS011;23859;50.672;7.164;2023-03-01T07:37:02;28.77;;;15.77;;
38053;SDS011;23859;50.672;7.164;2023-03-01T07:39:28;29.85;;;16.05;;
38053;SDS011;23859;50.672;7.164;2023-03-01T07:41:54;25.88;;;14.88;;
38053;SDS011;23859;50.672;7.164;2023-03-01T07:44:20;29.83;;;15.23;;
38053;SDS011;23859;50.672;7.164;2023-03-01T07:46:47;26.40;;;15.50;;
38053;SDS011;23859;50.672;7.164;2023-03-01T07:49:13;33.50;;;16.77;;
38053;SDS011;23859;50.672;7.164;2023-03-01T07:51:39;29.60;;;16.08;;
38053;SDS011;23859;50.672;7.164;2023-03-01T07:54:05;31.98;;;17.23;;
38053;SDS011;23859;50.672;7.164;2023-03-01T07:56:31;26.40;;;14.98;;
38053;SDS011;23859;50.672;7.164;2023-03-01T07:58:58;26.17;;;15.77;;
38053;SDS011;23859;50.672;7.164;2023-03-01T08:01:25;32.95;;;16.52;;
38053;SDS011;23859;50.672;7.164;2023-03-01T08:03:51;29.70;;;15.10;;
38053;SDS011;23859;50.672;7.164;2023-03-01T08:06:17;27.25;;;14.68;;
38053;SDS011;23859;50.672;7.164;2023-03-01T08:08:44;28.80;;;15.98;;
38053;SDS011;23859;50.672;7.164;2023-03-01T08:11:11;25.52;;;15.23;;
38053;SDS011;23859;50.672;7.164;2023-03-01T08:13:38;29.08;;;16.08;;
38053;SDS011;23859;50.672;7.164;2023-03-01T08:16:10;27.17;;;15.73;;
38053;SDS011;23859;50.672;7.164;2023-03-01T08:18:37;38.08;;;16.73;;
38053;SDS011;23859;50.672;7.164;2023-03-01T08:21:07;25.98;;;17.30;;
38053;SDS011;23859;50.672;7.164;2023-03-01T08:23:35;26.17;;;15.73;;
38053;SDS011;23859;50.672;7.164;2023-03-01T08:28:33;28.08;;;15.98;;
38053;SDS011;23859;50.672;7.164;2023-03-01T08:31:00;28.25;;;14.93;;
38053;SDS011;23859;50.672;7.164;2023-03-01T08:33:27;29.58;;;15.55;;
38053;SDS011;23859;50.672;7.164;2023-03-01T08:36:01;28.02;;;16.42;;
38053;SDS011;23859;50.672;7.164;2023-03-01T08:38:28;29.35;;;15.52;;
38053;SDS011;23859;50.672;7.164;2023-03-01T08:40:54;24.02;;;14.45;;
38053;SDS011;23859;50.672;7.164;2023-03-01T08:43:23;34.00;;;16.45;;
38053;SDS011;23859;50.672;7.164;2023-03-01T08:45:49;27.20;;;15.60;;
38053;SDS011;23859;50.672;7.164;2023-03-01T08:48:15;27.58;;;17.52;;
38053;SDS011;23859;50.672;7.164;2023-03-01T08:50:41;24.15;;;14.93;;
38053;SDS011;23859;50.672;7.164;2023-03-01T08:53:07;29.10;;;15.52;;
38053;SDS011;23859;50.672;7.164;2023-03-01T08:55:33;24.52;;;14.63;;
38053;SDS011;23859;50.672;7.164;2023-03-01T08:57:59;30.15;;;16.27;;
38053;SDS011;23859;50.672;7.164;2023-03-01T09:00:25;27.17;;;15.73;;
38053;SDS011;23859;50.672;7.164;2023-03-01T09:02:51;25.73;;;14.13;;
38053;SDS011;23859;50.672;7.164;2023-03-01T09:05:18;27.33;;;14.98;;
38053;SDS011;23859;50.672;7.164;2023-03-01T09:07:44;26.52;;;15.95;;
38053;SDS011;23859;50.672;7.164;2023-03-01T09:10:10;21.98;;;14.73;;
38053;SDS011;23859;50.672;7.164;2023-03-01T09:12:36;21.70;;;13.85;;
38053;SDS011;23859;50.672;7.164;2023-03-01T09:15:02;27.30;;;15.10;;
38053;SDS011;23859;50.672;7.164;2023-03-01T09:17:28;24.65;;;15.90;;
38053;SDS011;23859;50.672;7.164;2023-03-01T09:19:54;27.35;;;15.73;;
38053;SDS011;23859;50.672;7.164;2023-03-01T09:22:20;28.90;;;15.20;;
38053;SDS011;23859;50.672;7.164;2023-03-01T09:24:46;25.15;;;15.18;;
38053;SDS011;23859;50.672;7.164;2023-03-01T09:27:12;24.55;;;15.27;;
38053;SDS011;23859;50.672;7.164;2023-03-01T09:29:39;28.58;;;16.38;;
38053;SDS011;23859;50.672;7.164;2023-03-01T09:32:05;25.88;;;15.45;;
38053;SDS011;23859;50.672;7.164;2023-03-01T09:34:33;25.83;;;14.73;;
38053;SDS011;23859;50.672;7.164;2023-03-01T09:37:19;23.83;;;14.80;;
38053;SDS011;23859;50.672;7.164;2023-03-01T09:39:45;23.23;;;14.50;;
38053;SDS011;23859;50.672;7.164;2023-03-01T09:42:11;23.23;;;14.20;;
38053;SDS011;23859;50.672;7.164;2023-03-01T09:47:29;24.77;;;16.08;;
38053;SDS011;23859;50.672;7.164;2023-03-01T09:49:58;23.80;;;14.15;;
38053;SDS011;23859;50.672;7.164;2023-03-01T10:01:11;23.73;;;14.23;;
38053;SDS011;23859;50.672;7.164;2023-03-01T10:03:58;20.92;;;14.05;;
38053;SDS011;23859;50.672;7.164;2023-03-01T10:06:35;24.58;;;15.82;;
38053;SDS011;23859;50.672;7.164;2023-03-01T10:09:07;22.35;;;13.35;;
38053;SDS011;23859;50.672;7.164;2023-03-01T10:11:43;21.58;;;14.65;;
38053;SDS011;23859;50.672;7.164;2023-03-01T10:14:33;23.85;;;14.32;;
38053;SDS011;23859;50.672;7.164;2023-03-01T10:17:46;25.70;;;13.88;;
38053;SDS011;23859;50.672;7.164;2023-03-01T10:20:21;24.45;;;13.10;;
38053;SDS011;23859;50.672;7.164;2023-03-01T10:22:49;23.08;;;13.60;;
38053;SDS011;23859;50.672;7.164;2023-03-01T10:30:50;19.50;;;12.93;;
38053;SDS011;23859;50.672;7.164;2023-03-01T10:33:22;21.35;;;12.88;;
38053;SDS011;23859;50.672;7.164;2023-03-01T10:38:17;19.73;;;13.27;;
38053;SDS011;23859;50.672;7.164;2023-03-01T10:40:54;21.42;;;13.23;;
38053;SDS011;23859;50.672;7.164;2023-03-01T10:43:22;19.23;;;12.70;;
38053;SDS011;23859;50.672;7.164;2023-03-01T10:45:50;18.10;;;12.48;;
38053;SDS011;23859;50.672;7.164;2023-03-01T10:48:20;17.65;;;12.30;;
38053;SDS011;23859;50.672;7.164;2023-03-01T10:53:28;18.17;;;12.05;;
38053;SDS011;23859;50.672;7.164;2023-03-01T10:58:25;20.08;;;12.60;;
38053;SDS011;23859;50.672;7.164;2023-03-01T11:00:56;17.50;;;11.75;;
38053;SDS011;23859;50.672;7.164;2023-03-01T11:03:26;17.55;;;12.27;;
38053;SDS011;23859;50.672;7.164;2023-03-01T11:08:32;16.08;;;11.95;;
38053;SDS011;23859;50.672;7.164;2023-03-01T11:13:54;18.67;;;12.23;;
38053;SDS011;23859;50.672;7.164;2023-03-01T11:19:00;17.33;;;11.98;;
38053;SDS011;23859;50.672;7.164;2023-03-01T11:21:47;17.48;;;11.75;;
38053;SDS011;23859;50.672;7.164;2023-03-01T11:24:51;18.20;;;11.98;;
38053;SDS011;23859;50.672;7.164;2023-03-01T11:27:24;21.23;;;12.30;;
38053;SDS011;23859;50.672;7.164;2023-03-01T11:29:54;25.00;;;12.30;;
38053;SDS011;23859;50.672;7.164;2023-03-01T11:32:29;18.45;;;11.38;;
38053;SDS011;23859;50.672;7.164;2023-03-01T11:41:05;16.83;;;11.07;;
38053;SDS011;23859;50.672;7.164;2023-03-01T11:43:37;18.95;;;12.10;;
38053;SDS011;23859;50.672;7.164;2023-03-01T11:46:27;19.13;;;12.13;;
38053;SDS011;23859;50.672;7.164;2023-03-01T11:54:56;17.27;;;10.90;;
38053;SDS011;23859;50.672;7.164;2023-03-01T12:00:37;16.17;;;11.20;;
38053;SDS011;23859;50.672;7.164;2023-03-01T12:05:52;17.05;;;10.27;;
38053;SDS011;23859;50.672;7.164;2023-03-01T12:08:41;16.77;;;10.73;;
38053;SDS011;23859;50.672;7.164;2023-03-01T12:16:39;13.80;;;10.10;;
38053;SDS011;23859;50.672;7.164;2023-03-01T12:27:59;12.52;;;8.98;;
38053;SDS011;23859;50.672;7.164;2023-03-01T12:35:47;14.15;;;8.52;;
38053;SDS011;23859;50.672;7.164;2023-03-01T12:38:41;12.95;;;8.30;;
38053;SDS011;23859;50.672;7.164;2023-03-01T12:44:10;12.80;;;8.38;;
38053;SDS011;23859;50.672;7.164;2023-03-01T12:51:57;13.75;;;7.45;;
38053;SDS011;23859;50.672;7.164;2023-03-01T12:54:29;12.10;;;6.97;;
38053;SDS011;23859;50.672;7.164;2023-03-01T12:57:00;15.38;;;8.52;;
38053;SDS011;23859;50.672;7.164;2023-03-01T13:05:45;15.18;;;8.88;;
38053;SDS011;23859;50.672;7.164;2023-03-01T13:08:27;14.70;;;8.30;;
38053;SDS011;23859;50.672;7.164;2023-03-01T13:11:25;13.77;;;8.25;;
38053;SDS011;23859;50.672;7.164;2023-03-01T13:13:51;12.32;;;7.82;;
38053;SDS011;23859;50.672;7.164;2023-03-01T13:21:42;12.88;;;7.53;;
38053;SDS011;23859;50.672;7.164;2023-03-01T13:24:23;12.85;;;7.18;;
38053;SDS011;23859;50.672;7.164;2023-03-01T13:32:26;15.23;;;8.45;;
38053;SDS011;23859;50.672;7.164;2023-03-01T13:37:27;13.35;;;7.70;;
38053;SDS011;23859;50.672;7.164;2023-03-01T13:39:58;12.23;;;6.95;;
38053;SDS011;23859;50.672;7.164;2023-03-01T13:42:36;12.55;;;7.60;;
38053;SDS011;23859;50.672;7.164;2023-03-01T13:45:05;11.25;;;7.18;;
38053;SDS011;23859;50.672;7.164;2023-03-01T13:47:56;11.02;;;7.35;;
38053;SDS011;23859;50.672;7.164;2023-03-01T13:50:30;14.38;;;7.13;;
38053;SDS011;23859;50.672;7.164;2023-03-01T13:53:03;11.57;;;6.97;;
38053;SDS011;23859;50.672;7.164;2023-03-01T13:55:34;10.88;;;6.47;;
38053;SDS011;23859;50.672;7.164;2023-03-01T14:03:26;12.85;;;6.80;;
38053;SDS011;23859;50.672;7.164;2023-03-01T14:06:07;10.95;;;6.68;;
38053;SDS011;23859;50.672;7.164;2023-03-01T14:08:37;12.32;;;6.93;;
38053;SDS011;23859;50.672;7.164;2023-03-01T14:14:00;13.00;;;7.50;;
38053;SDS011;23859;50.672;7.164;2023-03-01T14:19:35;11.63;;;6.32;;
38053;SDS011;23859;50.672;7.164;2023-03-01T14:24:51;11.35;;;5.72;;
38053;SDS011;23859;50.672;7.164;2023-03-01T14:27:21;10.98;;;6.20;;
38053;SDS011;23859;50.672;7.164;2023-03-01T14:30:02;9.55;;;6.32;;
38053;SDS011;23859;50.672;7.164;2023-03-01T14:32:37;11.57;;;5.90;;
38053;SDS011;23859;50.672;7.164;2023-03-01T14:35:18;9.10;;;5.80;;
38053;SDS011;23859;50.672;7.164;2023-03-01T14:37:46;8.43;;;5.93;;
38053;SDS011;23859;50.672;7.164;2023-03-01T14:40:21;10.40;;;6.00;;
38053;SDS011;23859;50.672;7.164;2023-03-01T14:42:50;9.38;;;5.80;;
38053;SDS011;23859;50.672;7.164;2023-03-01T14:45:18;11.00;;;6.45;;
38053;SDS011;23859;50.672;7.164;2023-03-01T14:47:45;11.60;;;6.18;;
38053;SDS011;23859;50.672;7.164;2023-03-01T14:52:54;10.95;;;6.35;;
38053;SDS011;23859;50.672;7.164;2023-03-01T14:55:33;8.93;;;5.68;;
38053;SDS011;23859;50.672;7.164;2023-03-01T14:58:04;8.48;;;5.38;;
38053;SDS011;23859;50.672;7.164;2023-03-01T15:00:36;8.85;;;6.00;;
38053;SDS011;23859;50.672;7.164;2023-03-01T15:03:46;8.63;;;5.70;;
38053;SDS011;23859;50.672;7.164;2023-03-01T15:05:56;10.48;;;5.95;;
38053;SDS011;23859;50.672;7.164;2023-03-01T15:08:23;10.32;;;5.60;;
38053;SDS011;23859;50.672;7.164;2023-03-01T15:13:47;10.65;;;6.30;;
38053;SDS011;23859;50.672;7.164;2023-03-01T15:16:13;10.55;;;6.30;;
38053;SDS011;23859;50.672;7.164;2023-03-01T15:18:51;10.27;;;5.85;;
38053;SDS011;23859;50.672;7.164;2023-03-01T15:21:26;11.80;;;5.63;;
38053;SDS011;23859;50.672;7.164;2023-03-01T15:24:00;9.82;;;5.20;;
38053;SDS011;23859;50.672;7.164;2023-03-01T15:26:31;11.00;;;5.60;;
38053;SDS011;23859;50.672;7.164;2023-03-01T15:29:20;6.53;;;4.53;;
38053;SDS011;23859;50.672;7.164;2023-03-01T15:31:54;12.18;;;5.20;;
38053;SDS011;23859;50.672;7.164;2023-03-01T15:34:26;9.95;;;4.88;;
38053;SDS011;23859;50.672;7.164;2023-03-01T15:37:01;7.93;;;4.95;;
38053;SDS011;23859;50.672;7.164;2023-03-01T15:39:40;6.90;;;4.95;;
38053;SDS011;23859;50.672;7.164;2023-03-01T15:44:39;8.77;;;4.93;;
38053;SDS011;23859;50.672;7.164;2023-03-01T15:47:26;8.38;;;5.10;;
38053;SDS011;23859;50.672;7.164;2023-03-01T15:49:54;8.48;;;4.90;;
38053;SDS011;23859;50.672;7.164;2023-03-01T15:52:29;7.05;;;4.90;;
38053;SDS011;23859;50.672;7.164;2023-03-01T15:55:05;8.65;;;5.07;;
38053;SDS011;23859;50.672;7.164;2023-03-01T15:57:44;9.43;;;5.20;;
38053;SDS011;23859;50.672;7.164;2023-03-01T16:00:11;12.45;;;5.10;;
38053;SDS011;23859;50.672;7.164;2023-03-01T16:02:39;7.15;;;4.80;;
38053;SDS011;23859;50.672;7.164;2023-03-01T16:05:26;8.15;;;5.22;;
38053;SDS011;23859;50.672;7.164;2023-03-01T16:07:55;8.25;;;5.43;;
38053;SDS011;23859;50.672;7.164;2023-03-01T16:10:22;10.15;;;6.20;;
38053;SDS011;23859;50.672;7.164;2023-03-01T16:12:49;10.35;;;5.43;;
38053;SDS011;23859;50.672;7.164;2023-03-01T16:15:21;9.80;;;6.00;;
38053;SDS011;23859;50.672;7.164;2023-03-01T16:17:47;12.35;;;5.60;;
38053;SDS011;23859;50.672;7.164;2023-03-01T16:20:14;11.57;;;6.22;;
38053;SDS011;23859;50.672;7.164;2023-03-01T16:22:44;8.80;;;5.03;;
38053;SDS011;23859;50.672;7.164;2023-03-01T16:25:14;12.43;;;5.35;;
38053;SDS011;23859;50.672;7.164;2023-03-01T16:27:42;10.77;;;5.30;;
38053;SDS011;23859;50.672;7.164;2023-03-01T16:30:12;9.57;;;5.22;;
38053;SDS011;23859;50.672;7.164;2023-03-01T16:32:40;8.68;;;5.57;;
38053;SDS011;23859;50.672;7.164;2023-03-01T16:35:08;10.23;;;5.20;;
38053;SDS011;23859;50.672;7.164;2023-03-01T16:37:35;10.50;;;5.18;;
38053;SDS011;23859;50.672;7.164;2023-03-01T16:40:03;8.85;;;5.78;;
38053;SDS011;23859;50.672;7.164;2023-03-01T16:42:34;8.57;;;4.93;;
38053;SDS011;23859;50.672;7.164;2023-03-01T16:45:01;10.10;;;5.93;;
38053;SDS011;23859;50.672;7.164;2023-03-01T16:47:28;9.70;;;4.95;;
38053;SDS011;23859;50.672;7.164;2023-03-01T16:49:54;11.77;;;5.68;;
38053;SDS011;23859;50.672;7.164;2023-03-01T16:52:21;9.65;;;5.80;;
38053;SDS011;23859;50.672;7.164;2023-03-01T16:54:47;7.75;;;5.43;;